Nearby METAR Reports

 

KOXC - Oxford/Waterbury, Connecticut, USA
Distance from station: SE 8mi, 12km
Updated: Thu, 02-Apr-2020 12:51pm EDT
Partly cloudy
Partly cloudy
 Wind from NNW
Wind: NNW 24 mph , 39 km/h, Gust: 35 mph , 56 km/h
Temperature: 50°F , 10°C
Wind Chill: 43°F , 6°C
Dew Point: 32°F , 0°C
Humidity: 50%
Barometer: 29.60 inHg , 1002.4 hPa
Clouds: Partly cloudy
Visibility: 10 miles , 16 km
Cloud details: Few Clouds 4000 ft
Partly cloudy 7500 ft
2020/04/02 16:51 KOXC 021651Z 33021G30KT 10SM FEW040 SCT075 10/00 A2960 RMK AO2 PK WND 33030/1650 SLP037 T01000000
KDXR - Danbury, Connecticut, USA
Distance from station: SW 19mi, 30km
Updated: Thu, 02-Apr-2020 12:53pm EDT
Clear
Clear
 Wind from NNW
Wind: NNW 18 mph , 30 km/h, Gust: 25 mph , 41 km/h
Temperature: 52°F , 11°C
Dew Point: 30°F , -1°C
Humidity: 44%
Barometer: 29.64 inHg , 1003.7 hPa
Clouds: Clear
Visibility: 10 miles , 16 km
2020/04/02 16:53 KDXR 021653Z 33016G22KT 10SM CLR 11/M01 A2964 RMK AO2 PK WND 31030/1637 SLP039 T01061011
 
KMMK - Meriden, Connecticut, USA
Distance from station: E 20mi, 33km
Updated: Thu, 02-Apr-2020 12:53pm EDT
Partly cloudy
Partly cloudy
 Wind from NNW
Wind: NNW 21 mph , 33 km/h, Gust: 30 mph , 48 km/h
Temperature: 54°F , 12°C
Dew Point: 30°F , -1°C
Humidity: 41%
Barometer: 29.58 inHg , 1001.7 hPa
Clouds: Partly cloudy
Visibility: 10 miles , 16 km
Cloud details: Few Clouds 6500 ft
Partly cloudy 7500 ft
2020/04/02 16:53 KMMK 021653Z AUTO 34018G26KT 10SM FEW065 SCT075 12/M01 A2958 RMK AO2 PK WND 34027/1626 RAB12E38 SLP018 P0000 T01221006
KBDR - Bridgeport, Connecticut, USA
Distance from station: S 27mi, 44km
Updated: Thu, 02-Apr-2020 12:52pm EDT
Clear
Clear
 Wind from NNW
Wind: NNW 25 mph , 41 km/h, Gust: 36 mph , 57 km/h
Temperature: 54°F , 12°C
Dew Point: 30°F , -1°C
Humidity: 41%
Barometer: 29.60 inHg , 1002.4 hPa
Clouds: Clear
Visibility: 10 miles , 16 km
2020/04/02 16:52 KBDR 021652Z 34022G31KT 10SM CLR 12/M01 A2960 RMK AO2 PK WND 31031/1625 SLP022 T01221006
 
KHVN - New Haven/Tweed, Connecticut, USA
Distance from station: SE 27mi, 44km
Updated: Thu, 02-Apr-2020 12:53pm EDT
Mostly cloudy
Mostly cloudy
 Wind from NNW
Wind: NNW 16 mph , 26 km/h, Gust: 32 mph , 52 km/h
Temperature: 54°F , 12°C
Dew Point: 32°F , 0°C
Humidity: 44%
Barometer: 29.58 inHg , 1001.7 hPa
Clouds: Mostly cloudy
Visibility: 10 miles , 16 km
Cloud details: Few Clouds 7000 ft
Mostly cloudy 25000 ft
2020/04/02 16:53 KHVN 021653Z 34014G28KT 10SM FEW070 BKN250 12/00 A2958 RMK AO2 SLP015 T01220000
KHFD - Hartford/Brainar, Connecticut, USA
Distance from station: ENE 32mi, 52km
Updated: Thu, 02-Apr-2020 12:53pm EDT
Partly cloudy
Partly cloudy
 Wind from NW
Wind: NW 23 mph , 37 km/h, Gust: 30 mph , 48 km/h
Temperature: 54°F , 12°C
Dew Point: 32°F , 0°C
Humidity: 44%
Barometer: 29.59 inHg , 1002 hPa
Clouds: Partly cloudy
Visibility: 10 miles , 16 km
Cloud details: Partly cloudy 4800 ft
2020/04/02 16:53 KHFD 021653Z 31020G26KT 10SM SCT048 12/00 A2959 RMK AO2 PK WND 31026/1645 SLP018 T01220000
 
KPOU - Poughkeepsie, New York, USA
Distance from station: W 35mi, 56km
Updated: Thu, 02-Apr-2020 12:53pm EDT
Few Clouds
Few Clouds
 Wind from NNE
Wind: NNE 22 mph , 35 km/h, Gust: 26 mph , 43 km/h
Temperature: 54°F , 12°C
Dew Point: 30°F , -1°C
Humidity: 41%
Barometer: 29.67 inHg , 1004.7 hPa
Clouds: Few Clouds
Visibility: 10 miles , 16 km
Cloud details: Few Clouds 4900 ft
Few Clouds 5500 ft
2020/04/02 16:53 KPOU 021653Z 02019G23KT 10SM FEW049 FEW055 12/M01 A2967 RMK AO2 PK WND 36031/1557 SLP044 T01171006
KBDL - Windsor Locks, Connecticut, USA
Distance from station: NE 38mi, 62km
Updated: Thu, 02-Apr-2020 12:51pm EDT
Mostly cloudy
Mostly cloudy
 Wind from NNW
Wind: NNW 22 mph , 35 km/h, Gust: 33 mph , 54 km/h
Temperature: 52°F , 11°C
Dew Point: 30°F , -1°C
Humidity: 44%
Barometer: 29.59 inHg , 1002 hPa
Clouds: Mostly cloudy
Visibility: 10 miles , 16 km
Cloud details: Few Clouds 4500 ft
Mostly cloudy 9000 ft
Mostly cloudy 20000 ft
2020/04/02 16:51 KBDL 021651Z 33019G29KT 10SM FEW045 BKN090 BKN200 11/M01 A2959 RMK AO2 PK WND 36031/1638 SLP020 T01111006
 
KSNC - Chester, Connecticut, USA
Distance from station: ESE 39mi, 63km
Updated: Thu, 02-Apr-2020 12:55pm EDT
Partly cloudy
Partly cloudy
 Wind from NNW
Wind: NNW 18 mph , 30 km/h, Gust: 30 mph , 48 km/h
Temperature: 52°F , 11°C
Dew Point: 30°F , -1°C
Humidity: 44%
Barometer: 29.55 inHg , 1000.7 hPa
Clouds: Partly cloudy
Visibility: 10 miles , 16 km
Cloud details: Few Clouds 5000 ft
Few Clouds 6500 ft
Partly cloudy 8500 ft
2020/04/02 16:55 KSNC 021655Z AUTO 34016G26KT 10SM FEW050 FEW065 SCT085 11/M01 A2955 RMK AO2
KHPN - White Plains, New York, USA
Distance from station: SW 42mi, 67km
Updated: Thu, 02-Apr-2020 12:56pm EDT
Partly cloudy
Partly cloudy
 Wind from NW
Wind: NW 25 mph , 41 km/h, Gust: 37 mph , 59 km/h
Temperature: 52°F , 11°C
Dew Point: 28°F , -2°C
Humidity: 41%
Barometer: 29.63 inHg , 1003.4 hPa
Clouds: Partly cloudy
Visibility: 10 miles , 16 km
Cloud details: Partly cloudy 4700 ft
2020/04/02 16:56 KHPN 021656Z 32022G32KT 10SM SCT047 11/M02 A2963 RMK AO2 PK WND 33032/1653 SLP037 T01111017
 
KSWF - Newburgh/Stewart, New York, USA
Distance from station: W 45mi, 72km
Updated: Thu, 02-Apr-2020 12:45pm EDT
Partly cloudy
Partly cloudy
 Wind from NNW
Wind: NNW 17 mph , 28 km/h, Gust: 29 mph , 46 km/h
Temperature: 52°F , 11°C
Dew Point: 30°F , -1°C
Humidity: 44%
Barometer: 29.68 inHg , 1005.1 hPa
Clouds: Partly cloudy
Visibility: 10 miles , 16 km
Cloud details: Partly cloudy 4000 ft
2020/04/02 16:45 KSWF 021645Z 34015G25KT 10SM SCT040 11/M01 A2968
KBAF - Westfield, Massachusetts, USA
Distance from station: NNE 50mi, 80km
Updated: Thu, 02-Apr-2020 12:53pm EDT
Few Clouds
Few Clouds
 Wind from NW
Wind: NW 26 mph , 43 km/h, Gust: 35 mph , 56 km/h
Temperature: 54°F , 12°C
Dew Point: 30°F , -1°C
Humidity: 41%
Barometer: 29.58 inHg , 1001.7 hPa
Clouds: Few Clouds
Visibility: 10 miles , 16 km
Cloud details: Few Clouds 11000 ft
2020/04/02 16:53 KBAF 021653Z 31023G30KT 10SM FEW110 12/M01 A2958 RMK AO2 PK WND 31031/1607 SLP020 T01171011